createdAt,value
2022-11-28T00:00:08.533Z,101003.09
2022-11-28T00:02:46.278Z,100979.34
2022-11-28T00:05:13.852Z,100977.50
2022-11-28T00:07:41.208Z,100961.63
2022-11-28T00:10:09.316Z,100957.22
2022-11-28T00:12:39.761Z,100946.59
2022-11-28T00:15:17.572Z,100943.97
2022-11-28T02:22:22.185Z,100788.81
2022-11-28T02:25:12.458Z,100810.75
2022-11-28T02:28:35.472Z,100840.63
2022-11-28T02:32:08.059Z,100836.16
2022-11-28T02:35:04.634Z,100834.41
2022-11-28T02:38:13.352Z,100831.75
2022-11-28T02:41:37.671Z,100833.47
2022-11-28T02:44:33.312Z,100818.50
2022-11-28T02:47:15.954Z,100803.56
2022-11-28T02:50:12.812Z,100777.13
2022-11-28T02:52:49.364Z,100783.28
2022-11-28T02:55:17.202Z,100785.94
2022-11-28T02:57:52.290Z,100785.97
2022-11-28T03:00:39.050Z,100798.31
2022-11-28T03:03:46.202Z,100820.28
2022-11-28T03:06:38.166Z,100836.13
2022-11-28T03:09:26.523Z,100809.78
2022-11-28T03:12:45.308Z,100811.53
2022-11-28T03:15:14.613Z,100805.38
2022-11-28T03:18:03.038Z,100799.25
2022-11-28T03:20:46.479Z,100783.41
2022-11-28T03:23:44.252Z,100790.44
2022-11-28T03:26:36.331Z,100775.50
2022-11-28T03:29:31.988Z,100771.09
2022-11-28T03:32:05.643Z,100769.38
2022-11-28T03:34:41.424Z,100764.97
2022-11-28T03:37:22.137Z,100764.09
2022-11-28T03:39:55.206Z,100758.00
2022-11-28T03:42:30.105Z,100763.28
2022-11-28T03:45:04.166Z,100761.47
2022-11-28T03:47:38.384Z,100761.47
2022-11-28T03:50:08.861Z,100771.16
2022-11-28T03:52:44.875Z,100776.44
2022-11-28T03:55:28.914Z,100775.53
2022-11-28T03:58:07.805Z,100771.16
2022-11-28T04:00:49.763Z,100770.25
2022-11-28T04:03:42.720Z,100766.75
2022-11-28T04:06:28.124Z,100771.13
2022-11-28T04:09:11.546Z,100766.75
2022-11-28T04:11:57.310Z,100760.59
2022-11-28T04:14:37.999Z,100749.13
2022-11-28T04:17:33.043Z,100747.38
2022-11-28T04:20:16.742Z,100737.69
2022-11-28T04:22:55.107Z,100740.34
2022-11-28T04:25:23.590Z,100742.97
2022-11-28T04:27:59.138Z,100740.34
2022-11-28T04:30:26.081Z,100746.50
2022-11-28T04:33:01.243Z,100744.75
2022-11-28T04:35:33.119Z,100741.22
2022-11-28T04:38:02.935Z,100743.00
2022-11-28T04:40:35.176Z,100747.41
2022-11-28T04:43:14.223Z,100739.47
2022-11-28T04:45:50.600Z,100739.47
2022-11-28T04:48:18.141Z,100732.44
2022-11-28T04:51:27.794Z,100730.66
2022-11-28T04:54:11.849Z,100723.59
2022-11-28T04:56:53.194Z,100730.63
2022-11-28T04:59:24.591Z,100718.28
2022-11-28T05:01:51.544Z,100710.34
2022-11-28T05:04:19.039Z,100712.97
2022-11-28T05:06:46.164Z,100715.63
2022-11-28T05:09:13.322Z,100718.28
2022-11-28T05:11:40.295Z,100723.56
2022-11-28T05:14:07.879Z,100727.06
2022-11-28T05:16:35.439Z,100719.13
2022-11-28T05:19:02.378Z,100726.13
2022-11-28T05:21:29.129Z,100726.13
2022-11-28T05:23:55.894Z,100727.88
2022-11-28T05:26:22.847Z,100728.78
2022-11-28T05:28:51.367Z,100728.78
2022-11-28T05:31:21.680Z,100716.47
2022-11-28T05:33:48.733Z,100716.44
2022-11-28T05:36:17.659Z,100711.16
2022-11-28T05:38:44.832Z,100712.91
2022-11-28T05:41:24.285Z,100712.91
2022-11-28T05:43:51.690Z,100719.03
2022-11-28T05:46:19.419Z,100711.09
2022-11-28T05:48:46.647Z,100716.41
2022-11-28T05:51:13.580Z,100714.66
2022-11-28T05:53:40.668Z,100726.09
2022-11-28T05:56:09.782Z,100720.81
2022-11-28T05:58:37.173Z,100720.81
2022-11-28T06:01:33.336Z,100720.81
2022-11-28T06:04:01.125Z,100713.81
2022-11-28T06:06:33.745Z,100708.53
2022-11-28T06:09:00.711Z,100711.13
2022-11-28T06:11:30.470Z,100716.41
2022-11-28T06:13:57.424Z,100705.84
2022-11-28T06:16:27.993Z,100712.84
2022-11-28T06:18:57.540Z,100709.34
2022-11-28T06:21:25.259Z,100704.94
2022-11-28T06:23:53.805Z,100703.16
2022-11-28T06:26:23.384Z,100694.34
2022-11-28T06:28:50.840Z,100698.72
2022-11-28T06:31:24.666Z,100691.66
2022-11-28T06:33:51.764Z,100705.75
2022-11-28T06:36:20.432Z,100703.09
2022-11-28T06:38:48.453Z,100702.22
2022-11-28T06:41:18.599Z,100703.09
2022-11-28T06:43:45.455Z,100706.63
2022-11-28T06:46:16.468Z,100718.03
2022-11-28T06:48:44.884Z,100709.25
2022-11-28T06:51:12.517Z,100709.25
2022-11-28T06:53:39.660Z,100705.72
2022-11-28T06:56:10.323Z,100699.53
2022-11-28T06:58:37.507Z,100703.06
2022-11-28T07:01:18.487Z,100703.97
2022-11-28T07:03:45.911Z,100719.78
2022-11-28T07:06:14.212Z,100718.91
2022-11-28T07:08:41.188Z,100716.25
2022-11-28T07:11:21.213Z,100723.31
2022-11-28T07:13:49.920Z,100735.66
2022-11-28T07:16:26.169Z,100735.66
2022-11-28T07:18:54.067Z,100733.00
2022-11-28T07:21:21.331Z,100732.13
2022-11-28T07:23:48.637Z,100750.63
2022-11-28T07:26:17.856Z,100748.84
2022-11-28T07:28:46.087Z,100748.00
2022-11-28T07:31:18.406Z,100742.72
2022-11-28T07:33:48.064Z,100743.59
2022-11-28T07:36:17.477Z,100747.13
2022-11-28T07:38:51.876Z,100756.78
2022-11-28T07:41:24.928Z,100755.03
2022-11-28T07:43:59.967Z,100758.56
2022-11-28T07:46:28.251Z,100752.44
2022-11-28T07:48:55.267Z,100755.97
2022-11-28T07:51:28.799Z,100749.88
2022-11-28T07:53:56.324Z,100750.75
2022-11-28T07:56:39.517Z,100763.06
2022-11-28T07:59:14.660Z,100748.09
2022-11-28T08:01:41.619Z,100748.16
2022-11-28T08:04:09.948Z,100745.50
2022-11-28T08:06:40.276Z,100755.22
2022-11-28T08:09:08.014Z,100752.56
2022-11-28T08:11:35.263Z,100757.03
2022-11-28T08:14:02.248Z,100760.53
2022-11-28T08:16:30.173Z,100754.41
2022-11-28T08:18:57.592Z,100747.38
2022-11-28T08:21:30.481Z,100749.19
2022-11-28T08:24:01.299Z,100749.19
2022-11-28T08:26:31.210Z,100744.78
2022-11-28T08:28:59.850Z,100750.06
2022-11-28T08:31:32.073Z,100748.31
2022-11-28T08:34:01.838Z,100743.03
2022-11-28T08:36:29.502Z,100736.91
2022-11-28T08:39:16.562Z,100736.00
2022-11-28T08:41:43.686Z,100736.91
2022-11-28T08:44:10.482Z,100740.41
2022-11-28T08:46:37.314Z,100743.06
2022-11-28T08:49:04.803Z,100739.53
2022-11-28T08:51:32.051Z,100758.91
2022-11-28T08:54:00.106Z,100750.13
2022-11-28T08:56:28.005Z,100746.56
2022-11-28T08:58:55.510Z,100744.84
2022-11-28T09:01:25.799Z,100743.06
2022-11-28T09:03:54.459Z,100743.94
2022-11-28T09:06:22.856Z,100746.63
2022-11-28T09:08:50.775Z,100740.44
2022-11-28T09:11:21.448Z,100740.44
2022-11-28T09:13:48.441Z,100734.28
2022-11-28T09:16:15.809Z,100751.91
2022-11-28T09:18:42.835Z,100749.28
2022-11-28T09:21:12.826Z,100754.56
2022-11-28T09:23:41.636Z,100758.13
2022-11-28T09:26:19.974Z,100759.00
2022-11-28T09:28:47.386Z,100755.50
2022-11-28T09:31:16.319Z,100759.06
2022-11-28T09:33:44.045Z,100752.03
2022-11-28T09:36:20.679Z,100754.66
2022-11-28T09:38:48.389Z,100757.31
2022-11-28T09:41:59.980Z,100760.84
2022-11-28T09:44:42.619Z,100757.31
2022-11-28T09:47:29.419Z,100758.19
2022-11-28T09:50:07.460Z,100759.09
2022-11-28T09:52:46.378Z,100752.06
2022-11-28T09:55:46.202Z,100752.06
2022-11-28T09:58:33.894Z,100759.97
2022-11-28T10:01:34.178Z,100759.09
2022-11-28T10:04:16.548Z,100759.09
2022-11-28T10:07:01.489Z,100754.66
2022-11-28T10:09:53.950Z,100754.72
2022-11-28T10:13:03.340Z,100759.13
2022-11-28T10:16:04.159Z,100747.66
2022-11-28T10:19:03.446Z,100746.78
2022-11-28T10:21:47.744Z,100745.03
2022-11-28T10:24:23.599Z,100736.25
2022-11-28T10:26:58.040Z,100739.75
2022-11-28T10:29:33.571Z,100740.66
2022-11-28T10:32:03.821Z,100736.28
2022-11-28T10:34:41.891Z,100738.03
2022-11-28T10:37:24.857Z,100739.84
2022-11-28T10:39:52.208Z,100728.41
2022-11-28T10:42:26.778Z,100724.88
2022-11-28T10:45:42.286Z,100731.09
2022-11-28T10:51:33.362Z,100731.94
2022-11-28T10:54:20.411Z,100721.41
2022-11-28T10:57:12.368Z,100717.03
2022-11-28T11:00:26.845Z,100721.44
2022-11-28T11:03:02.117Z,100717.06
2022-11-28T11:05:32.756Z,100716.19
2022-11-28T11:08:15.725Z,100717.06
2022-11-28T11:10:49.167Z,100714.44
2022-11-28T11:13:23.617Z,100724.16
2022-11-28T11:16:01.383Z,100725.94
